createdAt,value
2019-03-24T00:00:45.782Z,15.10
2019-03-24T00:03:16.442Z,23.77
2019-03-24T00:05:45.284Z,15.67
2019-03-24T00:08:13.976Z,21.50
2019-03-24T00:10:42.713Z,15.37
2019-03-24T00:13:11.562Z,22.43
2019-03-24T00:15:40.207Z,15.50
2019-03-24T00:18:08.916Z,21.83
2019-03-24T00:20:37.838Z,22.90
2019-03-24T00:23:07.042Z,19.70
2019-03-24T00:25:35.735Z,17.53
2019-03-24T00:28:06.239Z,17.63
2019-03-24T00:30:35.152Z,21.00
2019-03-24T00:33:03.850Z,16.20
2019-03-24T00:35:41.983Z,19.20
2019-03-24T00:38:12.798Z,16.20
2019-03-24T00:40:41.806Z,20.20
2019-03-24T00:43:10.524Z,23.87
2019-03-24T00:45:39.353Z,16.77
2019-03-24T00:48:08.038Z,17.63
2019-03-24T00:50:37.106Z,11.57
2019-03-24T00:53:05.853Z,21.57
2019-03-24T00:55:34.753Z,22.60
2019-03-24T00:58:03.764Z,24.87
2019-03-24T01:00:47.566Z,21.37
2019-03-24T01:03:17.071Z,22.47
2019-03-24T01:05:46.793Z,17.43
2019-03-24T01:08:16.114Z,18.50
2019-03-24T01:10:45.594Z,19.93
2019-03-24T01:13:14.791Z,26.77
2019-03-24T01:15:48.010Z,23.63
2019-03-24T01:18:14.988Z,18.13
2019-03-24T01:20:44.860Z,24.30
2019-03-24T01:23:13.670Z,24.47
2019-03-24T01:25:42.350Z,18.20
2019-03-24T01:28:11.064Z,17.53
2019-03-24T01:30:41.253Z,22.40
2019-03-24T01:33:10.079Z,20.50
2019-03-24T01:35:39.117Z,15.37
2019-03-24T01:38:08.676Z,20.20
2019-03-24T01:40:37.422Z,21.07
2019-03-24T01:43:06.088Z,22.53
2019-03-24T01:45:34.934Z,16.10
2019-03-24T01:48:04.128Z,20.53
2019-03-24T01:50:33.148Z,18.60
2019-03-24T01:53:01.945Z,17.13
2019-03-24T01:55:32.490Z,14.70
2019-03-24T01:58:01.360Z,28.87
2019-03-24T02:00:30.207Z,24.27
2019-03-24T02:02:58.891Z,26.83
2019-03-24T02:05:27.734Z,25.23
2019-03-24T02:07:56.461Z,18.33
2019-03-24T02:10:25.540Z,19.80
2019-03-24T02:12:54.474Z,28.53
2019-03-24T02:15:23.648Z,23.87
2019-03-24T02:17:52.779Z,25.27
2019-03-24T02:20:23.021Z,26.93
2019-03-24T02:22:53.620Z,22.57
2019-03-24T02:25:23.753Z,16.30
2019-03-24T02:27:52.840Z,20.20
2019-03-24T02:30:22.635Z,15.03
2019-03-24T02:32:51.939Z,18.47
2019-03-24T02:35:22.568Z,25.70
2019-03-24T02:37:51.372Z,21.83
2019-03-24T02:40:20.361Z,25.83
2019-03-24T02:42:49.244Z,26.97
2019-03-24T02:45:19.121Z,20.90
2019-03-24T02:47:48.986Z,33.03
2019-03-24T02:50:17.833Z,23.43
2019-03-24T02:52:46.569Z,21.40
2019-03-24T02:55:15.738Z,22.90
2019-03-24T02:57:44.587Z,27.00
2019-03-24T03:00:15.299Z,22.87
2019-03-24T03:02:44.192Z,38.27
2019-03-24T03:05:13.469Z,23.80
2019-03-24T03:07:42.540Z,23.30
2019-03-24T03:10:13.107Z,24.50
2019-03-24T03:12:42.263Z,24.17
2019-03-24T03:15:13.281Z,19.60
2019-03-24T03:17:43.305Z,24.57
2019-03-24T03:20:16.828Z,30.30
2019-03-24T03:22:47.456Z,24.37
2019-03-24T03:25:16.164Z,31.00
2019-03-24T03:27:45.178Z,36.80
2019-03-24T03:30:15.277Z,26.97
2019-03-24T03:32:45.064Z,27.50
2019-03-24T03:35:15.649Z,29.50
2019-03-24T03:37:44.897Z,20.33
2019-03-24T03:40:16.098Z,36.73
2019-03-24T03:42:45.641Z,28.47
2019-03-24T03:45:25.306Z,27.30
2019-03-24T03:47:54.317Z,25.10
2019-03-24T03:50:23.185Z,28.80
2019-03-24T03:52:51.937Z,32.73
2019-03-24T03:55:21.044Z,28.83
2019-03-24T03:57:52.310Z,34.27
2019-03-24T04:00:34.894Z,35.27
2019-03-24T04:03:06.076Z,38.83
2019-03-24T04:05:34.933Z,25.03
2019-03-24T04:08:04.695Z,41.73
2019-03-24T04:10:33.893Z,28.13
2019-03-24T04:13:03.292Z,34.60
2019-03-24T04:15:34.089Z,27.00
2019-03-24T04:18:03.734Z,32.80
2019-03-24T04:20:32.795Z,31.63
2019-03-24T04:23:01.452Z,22.50
2019-03-24T04:25:32.137Z,31.83
2019-03-24T04:28:00.927Z,26.93
2019-03-24T04:30:29.588Z,34.07
2019-03-24T04:32:58.330Z,34.93
2019-03-24T04:35:27.110Z,24.80
2019-03-24T04:37:55.898Z,27.63
2019-03-24T04:40:25.573Z,35.47
2019-03-24T04:42:54.407Z,24.33
2019-03-24T04:45:23.302Z,34.37
2019-03-24T04:47:51.985Z,28.67
2019-03-24T04:50:20.679Z,29.10
2019-03-24T04:52:49.562Z,29.90
2019-03-24T04:55:18.444Z,29.23
2019-03-24T04:57:47.100Z,32.33
2019-03-24T05:00:18.093Z,26.70
2019-03-24T05:02:46.749Z,31.27
2019-03-24T05:05:17.252Z,31.27
2019-03-24T05:07:46.523Z,27.27
2019-03-24T05:10:26.175Z,29.90
2019-03-24T05:12:55.064Z,33.20
2019-03-24T05:15:24.301Z,45.30
2019-03-24T05:17:54.771Z,35.63
2019-03-24T05:20:23.678Z,34.00
2019-03-24T05:22:52.363Z,35.70
2019-03-24T05:25:21.029Z,35.37
2019-03-24T05:27:50.974Z,38.70
2019-03-24T05:30:19.655Z,36.67
2019-03-24T05:32:48.466Z,39.00
2019-03-24T05:35:17.387Z,35.10
2019-03-24T05:37:46.077Z,44.50
2019-03-24T05:40:14.933Z,32.47
2019-03-24T05:42:43.838Z,41.97
2019-03-24T05:45:13.774Z,33.23
2019-03-24T05:47:42.523Z,38.57
2019-03-24T05:50:17.206Z,34.40
2019-03-24T05:52:45.879Z,39.07
2019-03-24T05:55:14.607Z,49.80
2019-03-24T05:57:43.665Z,51.50
2019-03-24T06:00:12.875Z,35.57
2019-03-24T06:02:41.579Z,46.67
2019-03-24T06:05:10.646Z,35.37
2019-03-24T06:07:39.313Z,29.33
2019-03-24T06:10:08.274Z,37.23
2019-03-24T06:12:37.224Z,29.40
2019-03-24T06:15:07.298Z,41.40
2019-03-24T06:17:36.007Z,31.87
2019-03-24T06:20:05.660Z,40.27
2019-03-24T06:22:34.356Z,41.93
2019-03-24T06:25:03.296Z,38.23
2019-03-24T06:27:32.131Z,37.17
2019-03-24T06:30:00.788Z,41.67
2019-03-24T06:32:29.763Z,42.10
2019-03-24T06:34:58.594Z,30.30
2019-03-24T06:37:27.312Z,36.20
2019-03-24T06:39:56.023Z,28.13
2019-03-24T06:42:24.887Z,26.53
2019-03-24T06:44:53.769Z,30.17
2019-03-24T06:47:22.725Z,32.50
2019-03-24T06:49:51.549Z,36.77
2019-03-24T06:52:21.233Z,30.73
2019-03-24T06:54:49.996Z,31.73
2019-03-24T06:57:19.103Z,29.97
2019-03-24T06:59:47.967Z,32.50
2019-03-24T07:02:16.633Z,34.27
2019-03-24T07:04:45.429Z,35.03
2019-03-24T07:07:14.076Z,29.07
2019-03-24T07:09:42.740Z,32.97
2019-03-24T07:12:11.596Z,41.27
2019-03-24T07:14:40.506Z,35.90
2019-03-24T07:17:09.397Z,32.13
2019-03-24T07:19:38.185Z,25.57
2019-03-24T07:22:07.367Z,27.00
2019-03-24T07:24:37.918Z,37.87
2019-03-24T07:27:06.820Z,21.93
2019-03-24T07:29:35.493Z,26.87
2019-03-24T07:32:04.504Z,25.10
2019-03-24T07:34:33.166Z,27.23
2019-03-24T07:37:01.832Z,32.30
2019-03-24T07:39:30.567Z,21.60
2019-03-24T07:41:59.567Z,26.33
2019-03-24T07:44:28.203Z,24.67
2019-03-24T07:46:58.031Z,24.23
2019-03-24T07:49:26.879Z,23.40
2019-03-24T07:51:55.547Z,20.33
2019-03-24T07:54:24.243Z,28.13
2019-03-24T07:56:53.326Z,31.37
2019-03-24T07:59:22.127Z,29.50
2019-03-24T08:01:52.800Z,18.80
2019-03-24T08:04:21.443Z,19.30
2019-03-24T08:06:50.109Z,13.30
2019-03-24T08:09:18.948Z,22.17
2019-03-24T08:11:47.849Z,24.03
2019-03-24T08:14:16.507Z,13.00
2019-03-24T08:16:45.333Z,21.57
2019-03-24T08:19:14.105Z,16.00
2019-03-24T08:21:42.765Z,15.93
2019-03-24T08:24:11.414Z,21.80
2019-03-24T08:26:40.176Z,19.77
2019-03-24T08:29:08.847Z,18.77
2019-03-24T08:31:37.519Z,14.20
2019-03-24T08:34:06.360Z,17.43
2019-03-24T08:36:35.039Z,15.73
2019-03-24T08:39:04.964Z,18.47
2019-03-24T08:41:33.764Z,17.03
2019-03-24T08:44:02.425Z,15.97
2019-03-24T08:46:31.244Z,14.97
2019-03-24T08:49:01.010Z,15.10
2019-03-24T08:51:29.895Z,12.00
2019-03-24T08:53:58.603Z,20.13
2019-03-24T08:56:27.488Z,17.77
2019-03-24T08:58:56.353Z,19.53
2019-03-24T09:01:25.131Z,14.20
2019-03-24T09:03:53.811Z,16.10
2019-03-24T09:06:22.608Z,14.60
2019-03-24T09:08:51.419Z,9.13
2019-03-24T09:11:30.663Z,13.93
2019-03-24T09:13:50.775Z,11.47
2019-03-24T09:16:19.597Z,13.87
2019-03-24T09:18:52.747Z,17.67
2019-03-24T09:21:19.685Z,16.07
2019-03-24T09:23:48.663Z,18.10
2019-03-24T09:26:17.367Z,10.97
2019-03-24T09:28:51.885Z,18.10
2019-03-24T09:31:20.740Z,13.10
2019-03-24T09:33:49.571Z,12.87
2019-03-24T09:36:18.244Z,17.70
2019-03-24T09:38:46.917Z,14.67
2019-03-24T09:41:15.727Z,13.30
2019-03-24T09:43:44.409Z,10.07
2019-03-24T09:46:13.218Z,12.17
2019-03-24T09:48:42.111Z,11.20
2019-03-24T09:51:10.901Z,15.77
2019-03-24T09:53:39.614Z,14.17
2019-03-24T09:56:08.387Z,9.70
2019-03-24T09:58:37.049Z,11.93
2019-03-24T10:01:07.606Z,11.47
2019-03-24T10:03:36.423Z,12.57
2019-03-24T10:06:05.297Z,11.50
2019-03-24T10:08:33.963Z,11.93
2019-03-24T10:11:02.749Z,9.90
2019-03-24T10:13:31.678Z,12.63
2019-03-24T10:16:00.469Z,7.70
2019-03-24T10:18:29.260Z,13.10
2019-03-24T10:20:57.910Z,13.33
2019-03-24T10:23:26.605Z,11.37
2019-03-24T10:25:55.436Z,11.60
2019-03-24T10:28:24.084Z,9.97
2019-03-24T10:30:52.905Z,10.33
2019-03-24T10:33:21.836Z,8.10
2019-03-24T10:35:50.490Z,10.87
2019-03-24T10:38:19.325Z,8.67
2019-03-24T10:40:48.236Z,13.47
2019-03-24T10:43:16.977Z,14.30
2019-03-24T10:45:45.694Z,9.03
2019-03-24T10:48:14.479Z,11.40
2019-03-24T10:50:43.144Z,8.33
2019-03-24T10:53:11.858Z,9.73
2019-03-24T10:55:40.737Z,11.60
2019-03-24T10:58:09.394Z,9.87
2019-03-24T11:00:42.796Z,9.40
2019-03-24T11:03:11.748Z,10.00
2019-03-24T11:05:40.430Z,6.30
2019-03-24T11:08:09.297Z,6.10
2019-03-24T11:10:38.188Z,7.60
2019-03-24T11:13:07.092Z,6.23
2019-03-24T11:15:35.749Z,10.97
2019-03-24T11:18:04.587Z,11.10
2019-03-24T11:20:33.490Z,9.67
2019-03-24T11:23:02.122Z,9.37
2019-03-24T11:25:30.954Z,12.07
2019-03-24T11:27:59.588Z,8.97
2019-03-24T11:30:28.242Z,8.07
2019-03-24T11:32:57.022Z,13.50
2019-03-24T11:35:27.727Z,8.90
2019-03-24T11:37:56.398Z,13.30
2019-03-24T11:40:25.243Z,10.30
2019-03-24T11:42:53.953Z,8.63
2019-03-24T11:45:22.652Z,9.83
2019-03-24T11:47:51.422Z,8.90
2019-03-24T11:50:20.523Z,6.43
2019-03-24T11:52:49.281Z,11.70
2019-03-24T11:55:19.333Z,8.97
2019-03-24T11:57:48.008Z,7.40
2019-03-24T12:00:19.057Z,8.47
2019-03-24T12:02:47.892Z,7.30
2019-03-24T12:05:16.971Z,12.07
2019-03-24T12:07:46.789Z,8.13
2019-03-24T12:10:15.713Z,12.37
2019-03-24T12:12:44.667Z,11.63
2019-03-24T12:15:13.559Z,6.93
2019-03-24T12:17:42.228Z,11.50
2019-03-24T12:20:11.132Z,9.00
2019-03-24T12:22:40.941Z,12.77
2019-03-24T12:25:10.215Z,8.90
2019-03-24T12:27:39.057Z,9.20
2019-03-24T12:30:08.604Z,8.47
2019-03-24T12:32:37.462Z,9.10
2019-03-24T12:35:06.461Z,12.03
2019-03-24T12:37:35.186Z,8.53
2019-03-24T12:40:04.566Z,10.13
2019-03-24T12:42:33.267Z,11.20
2019-03-24T12:45:02.347Z,9.33
2019-03-24T12:47:31.136Z,9.77
2019-03-24T12:50:08.768Z,11.33
2019-03-24T12:52:30.740Z,8.93
2019-03-24T12:54:59.579Z,11.00
2019-03-24T12:57:28.276Z,12.00
2019-03-24T12:59:57.045Z,8.10
2019-03-24T13:02:27.097Z,10.57
2019-03-24T13:04:56.182Z,5.97
2019-03-24T13:07:25.067Z,8.23
2019-03-24T13:09:53.983Z,8.00
2019-03-24T13:12:24.328Z,8.80
2019-03-24T13:14:53.153Z,6.70
2019-03-24T13:17:22.058Z,5.70
2019-03-24T13:19:52.782Z,7.27
2019-03-24T13:22:21.489Z,6.87
2019-03-24T13:24:50.609Z,10.20
2019-03-24T13:27:19.388Z,10.07
2019-03-24T13:29:48.249Z,10.20
2019-03-24T13:32:17.213Z,11.40
2019-03-24T13:34:46.196Z,9.90
2019-03-24T13:37:14.883Z,6.13
2019-03-24T13:39:43.604Z,9.97
2019-03-24T13:42:12.552Z,16.00
2019-03-24T13:44:41.261Z,9.50
2019-03-24T13:47:17.309Z,10.40
2019-03-24T13:49:46.045Z,7.07
2019-03-24T13:52:15.036Z,10.13
2019-03-24T13:54:44.019Z,8.80
2019-03-24T13:57:12.831Z,6.77
2019-03-24T13:59:41.793Z,8.00
2019-03-24T14:02:10.935Z,7.83
2019-03-24T14:04:40.044Z,8.77
2019-03-24T14:07:10.025Z,9.90
2019-03-24T14:09:38.856Z,10.60
2019-03-24T14:12:07.560Z,9.13
2019-03-24T14:14:36.392Z,10.03
2019-03-24T14:17:05.386Z,11.00
2019-03-24T14:19:34.154Z,11.00
2019-03-24T14:22:02.893Z,9.80
2019-03-24T14:24:31.882Z,9.97
2019-03-24T14:27:22.082Z,10.63
2019-03-24T14:29:50.754Z,7.80
2019-03-24T14:32:19.637Z,8.00
2019-03-24T14:34:48.317Z,9.30
2019-03-24T14:37:17.005Z,11.50
2019-03-24T14:39:46.131Z,9.43
2019-03-24T14:42:15.015Z,9.07
2019-03-24T14:44:43.778Z,8.70
2019-03-24T14:47:12.659Z,4.10
2019-03-24T14:49:42.884Z,6.37
2019-03-24T14:52:12.256Z,4.87
2019-03-24T14:54:41.151Z,3.07
2019-03-24T14:57:14.209Z,9.50
2019-03-24T14:59:43.220Z,8.90
2019-03-24T15:02:12.092Z,6.83
2019-03-24T15:04:40.768Z,5.17
2019-03-24T15:07:09.546Z,5.57
2019-03-24T15:09:38.370Z,5.70
2019-03-24T15:12:07.060Z,5.17
2019-03-24T15:14:35.769Z,5.97
2019-03-24T15:17:05.306Z,5.50
2019-03-24T15:19:34.173Z,10.70
2019-03-24T15:22:02.869Z,6.83
2019-03-24T15:24:31.737Z,7.10
2019-03-24T15:27:00.435Z,6.43
2019-03-24T15:29:29.152Z,6.07
2019-03-24T15:31:58.025Z,6.90
2019-03-24T15:34:26.827Z,3.77
2019-03-24T15:36:55.558Z,5.27
2019-03-24T15:39:24.401Z,5.27
2019-03-24T15:41:54.904Z,5.50
2019-03-24T15:44:23.745Z,6.47
2019-03-24T15:46:52.580Z,5.20
2019-03-24T15:49:21.346Z,6.07
2019-03-24T15:51:52.319Z,6.77
2019-03-24T15:54:21.236Z,10.50
2019-03-24T15:56:50.029Z,6.37
2019-03-24T15:59:18.718Z,7.93
2019-03-24T16:01:47.638Z,3.77
2019-03-24T16:04:16.509Z,6.17
2019-03-24T16:06:45.311Z,6.07
2019-03-24T16:09:14.131Z,6.23
2019-03-24T16:11:43.008Z,4.30
2019-03-24T16:14:11.901Z,6.17
2019-03-24T16:16:40.802Z,5.03
2019-03-24T16:19:09.517Z,4.20
2019-03-24T16:21:39.530Z,7.13
2019-03-24T16:24:08.311Z,6.70
2019-03-24T16:26:36.987Z,7.03
2019-03-24T16:29:05.874Z,5.57
2019-03-24T16:31:34.590Z,2.80
2019-03-24T16:34:05.422Z,6.23
2019-03-24T16:36:34.043Z,7.30
2019-03-24T16:39:04.240Z,5.50
2019-03-24T16:41:33.316Z,4.73
2019-03-24T16:44:02.214Z,3.70
2019-03-24T16:46:30.884Z,4.27
2019-03-24T16:48:59.682Z,4.10
2019-03-24T16:51:38.166Z,8.30
2019-03-24T16:54:10.590Z,3.20
2019-03-24T16:56:39.517Z,6.47
2019-03-24T16:59:08.181Z,4.87
2019-03-24T17:01:38.277Z,8.33
2019-03-24T17:04:08.296Z,5.90
2019-03-24T17:06:37.754Z,9.00
2019-03-24T17:09:07.523Z,8.80
2019-03-24T17:11:36.207Z,5.23
2019-03-24T17:14:04.881Z,12.63
2019-03-24T17:16:33.692Z,7.77
2019-03-24T17:19:02.408Z,6.77
2019-03-24T17:21:31.188Z,6.80
2019-03-24T17:23:59.855Z,7.57
2019-03-24T17:26:29.725Z,10.57
2019-03-24T17:28:58.675Z,10.03
2019-03-24T17:31:27.380Z,6.80
2019-03-24T17:33:56.206Z,9.47
2019-03-24T17:36:24.915Z,6.50
2019-03-24T17:38:55.409Z,5.90
2019-03-24T17:41:24.505Z,12.27
2019-03-24T17:44:02.834Z,7.20
2019-03-24T17:46:24.314Z,8.60
2019-03-24T17:48:53.043Z,7.23
2019-03-24T17:51:21.822Z,9.07
2019-03-24T17:53:50.719Z,11.73
2019-03-24T17:56:19.779Z,8.57
2019-03-24T17:58:48.607Z,6.30
2019-03-24T18:01:17.534Z,8.33
2019-03-24T18:03:46.581Z,8.70
2019-03-24T18:06:15.422Z,7.37
2019-03-24T18:08:45.288Z,7.93
2019-03-24T18:11:14.077Z,8.03
2019-03-24T18:13:42.769Z,9.63
2019-03-24T18:16:11.417Z,8.10
2019-03-24T18:18:40.261Z,9.80
2019-03-24T18:21:08.904Z,8.33
2019-03-24T18:23:37.572Z,8.90
2019-03-24T18:26:06.445Z,13.43
2019-03-24T18:28:35.126Z,9.00
2019-03-24T18:31:03.900Z,8.80
2019-03-24T18:33:32.803Z,7.43
2019-03-24T18:36:01.555Z,7.23
2019-03-24T18:38:31.562Z,8.37
2019-03-24T18:41:00.513Z,5.23
2019-03-24T18:43:29.173Z,7.57
2019-03-24T18:45:57.859Z,7.10
2019-03-24T18:48:26.727Z,12.43
2019-03-24T18:50:56.361Z,8.70
2019-03-24T18:53:25.101Z,8.73
2019-03-24T18:55:54.006Z,5.10
2019-03-24T18:58:22.702Z,8.13
2019-03-24T19:00:51.583Z,7.03
2019-03-24T19:03:20.486Z,7.23
2019-03-24T19:05:49.233Z,5.13
2019-03-24T19:08:18.063Z,6.57
2019-03-24T19:10:48.552Z,8.23
2019-03-24T19:13:17.289Z,6.20
2019-03-24T19:15:46.108Z,8.83
2019-03-24T19:18:14.971Z,7.60
2019-03-24T19:20:43.639Z,7.10
2019-03-24T19:23:12.364Z,8.67
2019-03-24T19:25:42.267Z,7.50
2019-03-24T19:28:10.931Z,6.67
2019-03-24T19:30:45.329Z,9.03
2019-03-24T19:33:14.061Z,8.10
2019-03-24T19:35:42.964Z,11.47
2019-03-24T19:38:12.167Z,6.97
2019-03-24T19:40:41.493Z,8.37
2019-03-24T19:43:10.472Z,7.50
2019-03-24T19:45:39.479Z,9.10
2019-03-24T19:48:09.481Z,8.33
2019-03-24T19:50:38.233Z,7.33
2019-03-24T19:53:07.233Z,7.07
2019-03-24T19:55:36.250Z,7.73
2019-03-24T19:58:04.935Z,8.20
2019-03-24T20:00:33.841Z,7.03
2019-03-24T20:03:02.550Z,9.70
2019-03-24T20:05:31.567Z,7.20
2019-03-24T20:08:02.183Z,8.03
2019-03-24T20:10:31.167Z,7.37
2019-03-24T20:12:59.913Z,7.73
2019-03-24T20:15:28.762Z,6.93
2019-03-24T20:17:57.559Z,8.70
2019-03-24T20:20:26.450Z,8.90
2019-03-24T20:22:56.778Z,7.70
2019-03-24T20:25:25.698Z,10.37
2019-03-24T20:27:54.659Z,6.23
2019-03-24T20:30:23.443Z,6.13
2019-03-24T20:32:52.265Z,10.83
2019-03-24T20:35:20.951Z,5.60
2019-03-24T20:37:49.646Z,10.60
2019-03-24T20:40:20.221Z,8.70
2019-03-24T20:42:52.806Z,7.90
2019-03-24T20:45:21.622Z,10.97
2019-03-24T20:47:50.313Z,7.03
2019-03-24T20:50:19.308Z,7.27
2019-03-24T20:52:48.197Z,6.57
2019-03-24T20:55:17.115Z,11.10
2019-03-24T20:57:45.779Z,8.07
2019-03-24T21:00:17.816Z,8.00
2019-03-24T21:02:46.646Z,9.93
2019-03-24T21:05:15.674Z,6.90
2019-03-24T21:07:44.544Z,5.83
2019-03-24T21:10:15.927Z,9.50
2019-03-24T21:12:44.640Z,7.23
2019-03-24T21:15:13.356Z,9.60
2019-03-24T21:17:42.174Z,10.20
2019-03-24T21:20:12.691Z,9.33
2019-03-24T21:22:41.557Z,8.10
2019-03-24T21:25:10.911Z,10.80
2019-03-24T21:27:39.613Z,11.00
2019-03-24T21:30:09.361Z,9.83
2019-03-24T21:32:38.287Z,8.43
2019-03-24T21:35:10.101Z,9.30
2019-03-24T21:37:38.792Z,6.40
2019-03-24T21:40:07.459Z,12.97
2019-03-24T21:42:37.464Z,9.23
2019-03-24T21:45:07.943Z,13.07
2019-03-24T21:47:38.647Z,8.93
2019-03-24T21:50:07.508Z,15.47
2019-03-24T21:52:36.420Z,10.53
2019-03-24T21:55:05.821Z,17.27
2019-03-24T21:57:35.695Z,9.53
2019-03-24T22:00:06.572Z,5.87
2019-03-24T22:02:35.635Z,9.20
2019-03-24T22:05:04.962Z,8.53
2019-03-24T22:07:37.560Z,10.90
2019-03-24T22:10:06.990Z,4.70
2019-03-24T22:12:35.910Z,11.03
2019-03-24T22:15:06.264Z,10.67
2019-03-24T22:17:34.996Z,8.60
2019-03-24T22:20:06.463Z,14.20
2019-03-24T22:22:35.191Z,14.50
2019-03-24T22:25:04.116Z,8.80
2019-03-24T22:27:32.850Z,10.17
2019-03-24T22:30:01.547Z,7.33
2019-03-24T22:32:30.817Z,10.83
2019-03-24T22:34:59.701Z,10.80
2019-03-24T22:37:28.705Z,10.43
2019-03-24T22:39:57.473Z,6.87
2019-03-24T22:42:26.172Z,14.23
2019-03-24T22:44:57.942Z,7.43
2019-03-24T22:47:26.997Z,11.63
2019-03-24T22:49:57.895Z,8.80
2019-03-24T22:52:27.468Z,13.07
2019-03-24T22:54:59.325Z,10.47
2019-03-24T22:57:28.235Z,14.07
2019-03-24T22:59:56.956Z,9.73
2019-03-24T23:02:25.694Z,12.40
2019-03-24T23:04:55.752Z,6.40
2019-03-24T23:07:24.635Z,9.93
2019-03-24T23:09:56.061Z,11.20
2019-03-24T23:12:24.893Z,10.20
2019-03-24T23:14:53.806Z,10.93
2019-03-24T23:17:22.726Z,8.40
2019-03-24T23:19:51.496Z,12.37
2019-03-24T23:22:20.678Z,10.80
2019-03-24T23:24:50.243Z,7.17
2019-03-24T23:27:18.962Z,12.00
2019-03-24T23:29:48.981Z,11.67
2019-03-24T23:32:17.875Z,10.20
2019-03-24T23:34:46.805Z,13.93
2019-03-24T23:37:16.734Z,7.60
2019-03-24T23:39:46.660Z,9.33
2019-03-24T23:42:15.385Z,8.40
2019-03-24T23:44:44.304Z,15.07
2019-03-24T23:47:13.120Z,8.27
2019-03-24T23:49:42.400Z,8.47
2019-03-24T23:52:12.523Z,11.30
2019-03-24T23:54:41.427Z,8.03
2019-03-24T23:57:10.176Z,12.20
2019-03-24T23:59:39.509Z,9.93
